createdAt,value
2023-01-26T00:03:30.922Z,3.43
2023-01-26T00:08:37.699Z,3.51
2023-01-26T00:13:39.645Z,3.48
2023-01-26T00:18:42.169Z,3.52
2023-01-26T00:23:44.347Z,3.58
2023-01-26T00:28:54.986Z,3.60
2023-01-26T00:34:00.023Z,3.65
2023-01-26T00:39:02.776Z,3.62
2023-01-26T00:44:04.524Z,3.56
2023-01-26T00:49:09.293Z,3.44
2023-01-26T00:54:10.803Z,3.36
2023-01-26T00:59:12.431Z,3.39
2023-01-26T01:04:17.045Z,3.36
2023-01-26T01:09:18.862Z,3.23
2023-01-26T01:14:20.326Z,3.08
2023-01-26T01:19:21.856Z,3.17
2023-01-26T01:24:23.337Z,3.13
2023-01-26T01:29:25.275Z,3.15
2023-01-26T01:34:26.769Z,3.06
2023-01-26T01:39:28.205Z,3.11
2023-01-26T01:44:29.713Z,3.01
2023-01-26T01:49:43.897Z,2.88
2023-01-26T01:54:53.191Z,2.83
2023-01-26T02:00:22.354Z,2.75
2023-01-26T02:05:31.471Z,2.71
2023-01-26T02:10:33.157Z,2.77
2023-01-26T02:15:34.693Z,2.74
2023-01-26T02:20:45.251Z,2.74
2023-01-26T02:25:49.545Z,2.73
2023-01-26T02:30:53.033Z,2.77
2023-01-26T02:35:54.474Z,2.78
2023-01-26T02:41:00.271Z,2.75
2023-01-26T02:46:01.913Z,2.87
2023-01-26T02:51:04.391Z,2.92
2023-01-26T02:56:06.238Z,3.00
2023-01-26T03:01:07.906Z,3.04
2023-01-26T03:06:13.679Z,3.04
2023-01-26T03:11:15.139Z,3.02
2023-01-26T03:16:18.528Z,3.03
2023-01-26T03:21:38.577Z,3.05
2023-01-26T03:26:59.103Z,3.09
2023-01-26T03:32:01.436Z,3.08
2023-01-26T03:37:03.715Z,3.08
2023-01-26T03:42:25.255Z,2.97
2023-01-26T03:47:45.245Z,2.91
2023-01-26T03:53:05.143Z,2.90
2023-01-26T03:58:08.511Z,2.91
2023-01-26T04:03:28.566Z,2.94
2023-01-26T04:08:30.440Z,2.91
2023-01-26T04:13:50.314Z,2.95
2023-01-26T04:19:12.754Z,2.88
2023-01-26T04:24:16.695Z,2.86
2023-01-26T04:29:18.575Z,2.87
2023-01-26T04:34:20.132Z,2.91
2023-01-26T04:39:21.595Z,2.90
2023-01-26T04:44:23.066Z,2.87
2023-01-26T04:49:24.591Z,2.87
2023-01-26T04:54:26.284Z,2.92
2023-01-26T04:59:27.900Z,2.86
2023-01-26T05:04:29.372Z,2.75
2023-01-26T05:09:30.905Z,2.79
2023-01-26T05:14:32.373Z,2.72
2023-01-26T05:19:33.821Z,2.68
2023-01-26T05:24:35.229Z,2.66
2023-01-26T05:29:36.698Z,2.67
2023-01-26T05:34:38.232Z,2.70
2023-01-26T05:39:39.563Z,2.75
2023-01-26T05:44:40.885Z,2.78
2023-01-26T05:49:45.858Z,2.73
2023-01-26T05:54:47.634Z,2.75
2023-01-26T05:59:48.950Z,2.57
2023-01-26T06:04:50.259Z,2.56
2023-01-26T06:09:52.411Z,2.49
2023-01-26T06:14:53.757Z,2.37
2023-01-26T06:19:55.158Z,2.30
2023-01-26T06:24:56.524Z,2.31
2023-01-26T06:29:57.861Z,2.17
2023-01-26T06:34:59.189Z,2.18
2023-01-26T06:40:00.626Z,2.16
2023-01-26T06:45:02.044Z,1.90
2023-01-26T06:50:03.671Z,1.87
2023-01-26T06:55:05.210Z,1.74
2023-01-26T07:00:07.319Z,1.84
2023-01-26T07:05:10.246Z,2.01
2023-01-26T07:10:12.929Z,2.10
2023-01-26T07:15:14.402Z,2.00
2023-01-26T07:20:15.941Z,2.10
2023-01-26T07:25:17.949Z,2.17
2023-01-26T07:30:19.355Z,2.13
2023-01-26T07:35:20.677Z,2.22
2023-01-26T07:40:21.995Z,2.32
2023-01-26T07:45:23.302Z,2.23
2023-01-26T07:50:25.765Z,2.11
2023-01-26T07:55:27.219Z,2.21
2023-01-26T08:00:28.566Z,2.33
2023-01-26T08:05:31.558Z,2.15
2023-01-26T08:10:33.006Z,2.09
2023-01-26T08:15:34.353Z,2.11
2023-01-26T08:20:35.741Z,2.02
2023-01-26T08:25:37.086Z,1.93
2023-01-26T08:30:38.611Z,1.87
2023-01-26T08:35:39.922Z,1.86
2023-01-26T08:40:41.246Z,1.70
2023-01-26T08:45:42.573Z,1.97
2023-01-26T08:50:44.518Z,2.02
2023-01-26T08:55:45.915Z,2.02
2023-01-26T09:00:47.595Z,2.16
2023-01-26T09:05:49.041Z,2.32
2023-01-26T09:10:50.399Z,2.44
2023-01-26T09:15:52.387Z,2.42
2023-01-26T09:20:55.697Z,2.34
2023-01-26T09:25:57.022Z,2.35
2023-01-26T09:31:04.827Z,2.40
2023-01-26T09:36:08.995Z,2.56
2023-01-26T09:41:10.646Z,2.54
2023-01-26T09:46:25.160Z,2.41
2023-01-26T09:51:31.293Z,2.36
2023-01-26T09:56:34.015Z,2.16
2023-01-26T10:01:43.282Z,2.14
2023-01-26T10:06:45.998Z,2.40
2023-01-26T10:11:53.026Z,2.45
2023-01-26T10:16:54.367Z,2.41
2023-01-26T10:21:59.614Z,2.26
2023-01-26T10:27:01.108Z,2.31
2023-01-26T10:32:03.534Z,2.38
2023-01-26T10:37:20.757Z,2.24
2023-01-26T10:42:22.421Z,2.19
2023-01-26T10:47:24.494Z,2.38
2023-01-26T10:52:25.916Z,2.38
2023-01-26T10:57:29.700Z,2.48
2023-01-26T11:02:31.888Z,2.72
2023-01-26T11:07:37.926Z,2.57
2023-01-26T11:12:39.543Z,2.64
2023-01-26T11:17:51.166Z,2.85
2023-01-26T11:23:18.224Z,2.81
2023-01-26T11:28:28.627Z,2.89
2023-01-26T11:33:46.243Z,3.23
2023-01-26T11:39:01.938Z,3.27
2023-01-26T11:44:28.863Z,3.15
2023-01-26T11:49:48.400Z,3.20
2023-01-26T11:55:24.015Z,3.36
2023-01-26T12:00:38.021Z,3.31
2023-01-26T12:05:46.270Z,3.24
2023-01-26T12:10:59.389Z,3.45
2023-01-26T12:16:13.545Z,3.28
2023-01-26T12:21:15.143Z,3.34
2023-01-26T12:26:20.585Z,3.51
2023-01-26T12:31:41.671Z,3.53
2023-01-26T12:37:04.498Z,3.43
2023-01-26T12:42:40.861Z,3.36
2023-01-26T12:48:14.604Z,3.43
2023-01-26T12:53:22.027Z,3.34
2023-01-26T12:58:29.798Z,3.32
2023-01-26T13:03:35.404Z,3.45
2023-01-26T13:08:36.953Z,3.71
2023-01-26T13:13:58.785Z,3.66
2023-01-26T13:19:02.636Z,3.66
2023-01-26T13:24:16.295Z,3.80
2023-01-26T13:29:32.878Z,3.91
2023-01-26T13:34:44.911Z,3.93
2023-01-26T13:39:54.655Z,3.81
2023-01-26T13:45:04.291Z,3.83
2023-01-26T13:50:32.167Z,3.99
2023-01-26T13:55:34.201Z,4.04
2023-01-26T14:00:35.646Z,4.08
2023-01-26T14:05:37.150Z,4.00
2023-01-26T14:10:43.232Z,3.97
2023-01-26T14:15:56.406Z,4.02
2023-01-26T14:21:04.939Z,4.06
2023-01-26T14:26:20.803Z,4.11
2023-01-26T14:31:26.691Z,4.08
2023-01-26T14:36:33.137Z,3.98
2023-01-26T14:41:37.769Z,3.98
2023-01-26T14:47:12.356Z,4.02
2023-01-26T14:52:27.137Z,3.92
2023-01-26T14:57:30.949Z,3.94
2023-01-26T15:02:38.408Z,4.04
2023-01-26T15:07:48.301Z,4.08
2023-01-26T15:12:58.023Z,4.10
2023-01-26T15:18:03.993Z,3.94
2023-01-26T15:23:26.796Z,3.90
2023-01-26T15:28:28.281Z,3.85
2023-01-26T15:33:40.081Z,3.75
2023-01-26T15:38:41.548Z,3.86
2023-01-26T15:43:43.335Z,3.90
2023-01-26T15:48:44.804Z,3.98
2023-01-26T15:53:46.446Z,3.95
2023-01-26T15:58:47.989Z,3.94
2023-01-26T16:03:50.702Z,3.92
2023-01-26T16:08:53.543Z,3.85
2023-01-26T16:14:03.126Z,3.76
2023-01-26T16:19:04.791Z,3.61
2023-01-26T16:24:06.444Z,3.46
2023-01-26T16:29:07.832Z,3.51
2023-01-26T16:34:10.099Z,3.52
2023-01-26T16:39:11.532Z,3.51
2023-01-26T16:44:15.707Z,3.47
2023-01-26T16:49:17.393Z,3.49
2023-01-26T16:54:18.792Z,3.51
2023-01-26T16:59:20.159Z,3.47
2023-01-26T17:04:21.488Z,3.40
2023-01-26T17:09:23.787Z,3.42
2023-01-26T17:14:25.261Z,3.41
2023-01-26T17:19:27.076Z,3.45
2023-01-26T17:24:28.409Z,3.48
2023-01-26T17:29:29.853Z,3.48
2023-01-26T17:34:31.172Z,3.48
2023-01-26T17:39:32.545Z,3.47
2023-01-26T17:44:34.144Z,3.52
2023-01-26T17:49:36.754Z,3.53
2023-01-26T17:54:38.140Z,3.56
2023-01-26T17:59:39.470Z,3.57
2023-01-26T18:04:40.837Z,3.56
2023-01-26T18:09:42.161Z,3.54
2023-01-26T18:14:44.756Z,3.46
2023-01-26T18:19:46.134Z,3.45
2023-01-26T18:24:48.113Z,3.40
2023-01-26T18:29:49.451Z,3.31
2023-01-26T18:34:50.757Z,3.32
2023-01-26T18:39:52.105Z,3.19
2023-01-26T18:45:00.664Z,3.13
2023-01-26T18:50:02.588Z,3.06
2023-01-26T18:55:04.209Z,3.08
2023-01-26T19:00:08.171Z,3.06
2023-01-26T19:05:10.050Z,3.14
2023-01-26T19:10:11.589Z,3.05
2023-01-26T19:15:13.199Z,3.05
2023-01-26T19:20:14.830Z,3.07
2023-01-26T19:25:16.161Z,2.94
2023-01-26T19:30:17.987Z,2.95
2023-01-26T19:35:19.338Z,2.97
2023-01-26T19:40:20.685Z,3.13
2023-01-26T19:45:22.015Z,3.16
2023-01-26T19:50:23.359Z,3.23
2023-01-26T19:55:24.721Z,3.30
2023-01-26T20:00:26.180Z,3.31
2023-01-26T20:05:27.567Z,3.40
2023-01-26T20:10:30.885Z,3.44
2023-01-26T20:15:35.361Z,3.46
2023-01-26T20:20:37.069Z,3.38
2023-01-26T20:25:38.559Z,3.38
2023-01-26T20:30:40.960Z,3.46
2023-01-26T20:35:43.464Z,3.38
2023-01-26T20:40:44.808Z,3.34
2023-01-26T20:45:46.189Z,3.34
2023-01-26T20:50:47.549Z,3.33
2023-01-26T20:55:48.897Z,3.34
2023-01-26T21:00:50.257Z,3.21
2023-01-26T21:05:51.615Z,2.94
2023-01-26T21:10:53.177Z,2.87
2023-01-26T21:15:54.592Z,2.91
2023-01-26T21:21:04.343Z,2.95
2023-01-26T21:26:09.574Z,3.01
2023-01-26T21:31:13.881Z,3.11
2023-01-26T21:36:18.683Z,3.18
2023-01-26T21:41:44.102Z,3.27
2023-01-26T21:46:46.608Z,3.24
2023-01-26T21:52:06.613Z,3.25
2023-01-26T21:57:28.563Z,3.42
2023-01-26T22:02:29.972Z,3.47
2023-01-26T22:07:32.129Z,3.53
2023-01-26T22:12:33.519Z,3.55
2023-01-26T22:17:34.866Z,3.55
2023-01-26T22:22:36.261Z,3.65
2023-01-26T22:27:39.543Z,3.62
2023-01-26T22:32:42.594Z,3.56
2023-01-26T22:37:44.001Z,3.50
2023-01-26T22:42:45.303Z,3.53
2023-01-26T22:47:50.295Z,3.58
2023-01-26T22:52:51.627Z,3.46
2023-01-26T22:57:53.013Z,3.46
2023-01-26T23:02:54.370Z,3.33
2023-01-26T23:07:56.050Z,3.32
2023-01-26T23:12:58.027Z,3.29
2023-01-26T23:17:59.384Z,3.45
2023-01-26T23:23:00.704Z,3.57
2023-01-26T23:28:03.403Z,3.49
2023-01-26T23:33:04.729Z,3.40
2023-01-26T23:38:06.065Z,3.41
2023-01-26T23:43:16.444Z,3.40
2023-01-26T23:48:19.791Z,3.53
2023-01-26T23:53:21.174Z,3.58
2023-01-26T23:58:22.751Z,3.64
